sensor_id;sensor_type;location;lat;lon;timestamp;P1;durP1;ratioP1;P2;durP2;ratioP2
47669;SDS011;33408;52.062;11.722;2023-07-31T00:00:55;5.07;;;1.48;;
47669;SDS011;33408;52.062;11.722;2023-07-31T00:03:21;9.95;;;2.05;;
47669;SDS011;33408;52.062;11.722;2023-07-31T00:05:48;6.43;;;1.88;;
47669;SDS011;33408;52.062;11.722;2023-07-31T00:08:14;6.97;;;1.30;;
47669;SDS011;33408;52.062;11.722;2023-07-31T00:10:41;6.38;;;1.88;;
47669;SDS011;33408;52.062;11.722;2023-07-31T00:13:07;7.55;;;2.00;;
47669;SDS011;33408;52.062;11.722;2023-07-31T00:15:35;6.65;;;2.28;;
47669;SDS011;33408;52.062;11.722;2023-07-31T00:18:02;4.57;;;1.65;;
47669;SDS011;33408;52.062;11.722;2023-07-31T00:20:29;6.53;;;1.63;;
47669;SDS011;33408;52.062;11.722;2023-07-31T00:22:55;7.15;;;1.90;;
47669;SDS011;33408;52.062;11.722;2023-07-31T00:25:22;6.07;;;1.80;;
47669;SDS011;33408;52.062;11.722;2023-07-31T00:27:49;6.78;;;1.60;;
47669;SDS011;33408;52.062;11.722;2023-07-31T00:30:15;6.28;;;1.77;;
47669;SDS011;33408;52.062;11.722;2023-07-31T00:32:43;6.30;;;1.92;;
47669;SDS011;33408;52.062;11.722;2023-07-31T00:35:10;5.70;;;1.95;;
47669;SDS011;33408;52.062;11.722;2023-07-31T00:37:36;7.60;;;2.13;;
47669;SDS011;33408;52.062;11.722;2023-07-31T00:40:03;8.30;;;1.70;;
47669;SDS011;33408;52.062;11.722;2023-07-31T00:42:31;8.32;;;1.95;;
47669;SDS011;33408;52.062;11.722;2023-07-31T00:44:57;6.78;;;1.90;;
47669;SDS011;33408;52.062;11.722;2023-07-31T00:47:24;6.63;;;1.75;;
47669;SDS011;33408;52.062;11.722;2023-07-31T00:49:52;6.47;;;2.17;;
47669;SDS011;33408;52.062;11.722;2023-07-31T00:52:19;7.55;;;2.08;;
47669;SDS011;33408;52.062;11.722;2023-07-31T00:54:45;7.15;;;1.67;;
47669;SDS011;33408;52.062;11.722;2023-07-31T00:57:12;6.15;;;1.83;;
47669;SDS011;33408;52.062;11.722;2023-07-31T00:59:39;7.22;;;1.88;;
47669;SDS011;33408;52.062;11.722;2023-07-31T01:02:05;7.05;;;1.95;;
47669;SDS011;33408;52.062;11.722;2023-07-31T01:04:32;6.95;;;1.90;;
47669;SDS011;33408;52.062;11.722;2023-07-31T01:07:01;6.85;;;2.70;;
47669;SDS011;33408;52.062;11.722;2023-07-31T01:09:39;8.82;;;2.20;;
47669;SDS011;33408;52.062;11.722;2023-07-31T01:12:12;5.13;;;1.80;;
47669;SDS011;33408;52.062;11.722;2023-07-31T01:14:42;7.75;;;2.25;;
47669;SDS011;33408;52.062;11.722;2023-07-31T01:17:17;5.13;;;2.03;;
47669;SDS011;33408;52.062;11.722;2023-07-31T01:19:43;9.63;;;2.25;;
47669;SDS011;33408;52.062;11.722;2023-07-31T01:22:30;5.70;;;1.58;;
47669;SDS011;33408;52.062;11.722;2023-07-31T01:25:12;4.93;;;1.90;;
47669;SDS011;33408;52.062;11.722;2023-07-31T01:27:51;7.32;;;2.40;;
47669;SDS011;33408;52.062;11.722;2023-07-31T01:30:24;6.32;;;1.92;;
47669;SDS011;33408;52.062;11.722;2023-07-31T01:32:54;5.23;;;1.87;;
47669;SDS011;33408;52.062;11.722;2023-07-31T01:35:21;4.97;;;1.70;;
47669;SDS011;33408;52.062;11.722;2023-07-31T01:37:48;6.38;;;2.03;;
47669;SDS011;33408;52.062;11.722;2023-07-31T01:40:15;6.88;;;2.13;;
47669;SDS011;33408;52.062;11.722;2023-07-31T01:42:41;7.63;;;2.15;;
47669;SDS011;33408;52.062;11.722;2023-07-31T01:45:10;7.72;;;2.40;;
47669;SDS011;33408;52.062;11.722;2023-07-31T01:47:37;7.88;;;2.00;;
47669;SDS011;33408;52.062;11.722;2023-07-31T01:50:04;7.38;;;1.98;;
47669;SDS011;33408;52.062;11.722;2023-07-31T01:52:31;7.72;;;2.30;;
47669;SDS011;33408;52.062;11.722;2023-07-31T01:54:58;5.53;;;1.88;;
47669;SDS011;33408;52.062;11.722;2023-07-31T01:57:25;9.43;;;2.28;;
47669;SDS011;33408;52.062;11.722;2023-07-31T01:59:51;9.27;;;2.13;;
47669;SDS011;33408;52.062;11.722;2023-07-31T02:02:20;5.95;;;2.15;;
47669;SDS011;33408;52.062;11.722;2023-07-31T02:04:48;5.78;;;1.90;;
47669;SDS011;33408;52.062;11.722;2023-07-31T02:07:14;6.53;;;2.38;;
47669;SDS011;33408;52.062;11.722;2023-07-31T02:09:41;9.23;;;2.38;;
47669;SDS011;33408;52.062;11.722;2023-07-31T02:12:08;7.25;;;2.30;;
47669;SDS011;33408;52.062;11.722;2023-07-31T02:14:34;4.60;;;1.75;;
47669;SDS011;33408;52.062;11.722;2023-07-31T02:17:01;6.88;;;2.08;;
47669;SDS011;33408;52.062;11.722;2023-07-31T02:19:29;6.97;;;2.33;;
47669;SDS011;33408;52.062;11.722;2023-07-31T02:21:55;14.05;;;2.72;;
47669;SDS011;33408;52.062;11.722;2023-07-31T02:24:22;6.15;;;1.90;;
47669;SDS011;33408;52.062;11.722;2023-07-31T02:26:50;6.38;;;1.92;;
47669;SDS011;33408;52.062;11.722;2023-07-31T02:29:16;6.72;;;1.90;;
47669;SDS011;33408;52.062;11.722;2023-07-31T02:31:43;5.65;;;1.80;;
47669;SDS011;33408;52.062;11.722;2023-07-31T02:34:09;5.00;;;1.95;;
47669;SDS011;33408;52.062;11.722;2023-07-31T02:36:37;7.95;;;2.08;;
47669;SDS011;33408;52.062;11.722;2023-07-31T02:39:07;6.88;;;1.98;;
47669;SDS011;33408;52.062;11.722;2023-07-31T02:41:33;4.50;;;1.67;;
47669;SDS011;33408;52.062;11.722;2023-07-31T02:44:00;7.03;;;1.85;;
47669;SDS011;33408;52.062;11.722;2023-07-31T02:46:26;7.15;;;1.73;;
47669;SDS011;33408;52.062;11.722;2023-07-31T02:48:53;5.57;;;1.73;;
47669;SDS011;33408;52.062;11.722;2023-07-31T02:51:20;7.13;;;2.28;;
47669;SDS011;33408;52.062;11.722;2023-07-31T02:53:48;10.40;;;2.47;;
47669;SDS011;33408;52.062;11.722;2023-07-31T02:56:14;6.72;;;2.13;;
47669;SDS011;33408;52.062;11.722;2023-07-31T02:58:41;6.57;;;1.88;;
47669;SDS011;33408;52.062;11.722;2023-07-31T03:01:07;4.20;;;1.58;;
47669;SDS011;33408;52.062;11.722;2023-07-31T03:03:34;7.07;;;1.95;;
47669;SDS011;33408;52.062;11.722;2023-07-31T03:06:01;5.72;;;1.77;;
47669;SDS011;33408;52.062;11.722;2023-07-31T03:08:27;8.18;;;1.83;;
47669;SDS011;33408;52.062;11.722;2023-07-31T03:10:55;5.43;;;1.63;;
47669;SDS011;33408;52.062;11.722;2023-07-31T03:13:22;5.18;;;1.48;;
47669;SDS011;33408;52.062;11.722;2023-07-31T03:15:49;5.70;;;1.85;;
47669;SDS011;33408;52.062;11.722;2023-07-31T03:18:16;2.70;;;1.30;;
47669;SDS011;33408;52.062;11.722;2023-07-31T03:20:43;5.53;;;1.45;;
47669;SDS011;33408;52.062;11.722;2023-07-31T03:23:10;3.28;;;1.40;;
47669;SDS011;33408;52.062;11.722;2023-07-31T03:25:36;4.20;;;1.70;;
47669;SDS011;33408;52.062;11.722;2023-07-31T03:28:04;4.07;;;1.20;;
47669;SDS011;33408;52.062;11.722;2023-07-31T03:30:31;2.47;;;1.13;;
47669;SDS011;33408;52.062;11.722;2023-07-31T03:32:58;2.80;;;1.20;;
47669;SDS011;33408;52.062;11.722;2023-07-31T03:35:24;5.55;;;1.25;;
47669;SDS011;33408;52.062;11.722;2023-07-31T03:37:51;1.95;;;0.90;;
47669;SDS011;33408;52.062;11.722;2023-07-31T03:40:17;3.25;;;1.10;;
47669;SDS011;33408;52.062;11.722;2023-07-31T03:42:44;3.97;;;1.00;;
47669;SDS011;33408;52.062;11.722;2023-07-31T03:45:12;2.65;;;1.02;;
47669;SDS011;33408;52.062;11.722;2023-07-31T03:47:39;3.15;;;1.00;;
47669;SDS011;33408;52.062;11.722;2023-07-31T03:50:06;1.63;;;0.98;;
47669;SDS011;33408;52.062;11.722;2023-07-31T03:52:33;2.63;;;1.02;;
47669;SDS011;33408;52.062;11.722;2023-07-31T03:54:59;2.63;;;1.33;;
47669;SDS011;33408;52.062;11.722;2023-07-31T03:57:26;3.45;;;0.98;;
47669;SDS011;33408;52.062;11.722;2023-07-31T03:59:53;4.95;;;1.40;;
47669;SDS011;33408;52.062;11.722;2023-07-31T04:02:20;2.78;;;1.40;;
47669;SDS011;33408;52.062;11.722;2023-07-31T04:04:47;2.63;;;0.98;;
47669;SDS011;33408;52.062;11.722;2023-07-31T04:07:14;2.90;;;0.93;;
47669;SDS011;33408;52.062;11.722;2023-07-31T04:09:40;2.63;;;0.88;;
47669;SDS011;33408;52.062;11.722;2023-07-31T04:12:07;9.30;;;1.40;;
47669;SDS011;33408;52.062;11.722;2023-07-31T04:14:34;4.85;;;1.30;;
47669;SDS011;33408;52.062;11.722;2023-07-31T04:17:00;6.43;;;1.30;;
47669;SDS011;33408;52.062;11.722;2023-07-31T04:19:28;5.90;;;1.17;;
47669;SDS011;33408;52.062;11.722;2023-07-31T04:21:55;3.95;;;1.58;;
47669;SDS011;33408;52.062;11.722;2023-07-31T04:24:21;10.02;;;3.33;;
47669;SDS011;33408;52.062;11.722;2023-07-31T04:26:49;6.72;;;2.45;;
47669;SDS011;33408;52.062;11.722;2023-07-31T04:29:16;5.78;;;2.15;;
47669;SDS011;33408;52.062;11.722;2023-07-31T04:31:42;6.20;;;2.03;;
47669;SDS011;33408;52.062;11.722;2023-07-31T04:34:09;3.45;;;1.55;;
47669;SDS011;33408;52.062;11.722;2023-07-31T04:36:37;6.93;;;3.22;;
47669;SDS011;33408;52.062;11.722;2023-07-31T04:39:04;9.57;;;3.03;;
47669;SDS011;33408;52.062;11.722;2023-07-31T04:41:31;8.48;;;2.55;;
47669;SDS011;33408;52.062;11.722;2023-07-31T04:43:57;6.82;;;3.03;;
47669;SDS011;33408;52.062;11.722;2023-07-31T04:46:24;3.95;;;1.52;;
47669;SDS011;33408;52.062;11.722;2023-07-31T04:48:50;5.07;;;2.03;;
47669;SDS011;33408;52.062;11.722;2023-07-31T04:51:17;5.72;;;1.92;;
47669;SDS011;33408;52.062;11.722;2023-07-31T04:53:45;7.97;;;2.80;;
47669;SDS011;33408;52.062;11.722;2023-07-31T04:56:11;6.88;;;2.63;;
47669;SDS011;33408;52.062;11.722;2023-07-31T04:58:39;7.10;;;2.25;;
47669;SDS011;33408;52.062;11.722;2023-07-31T05:01:05;5.32;;;1.83;;
47669;SDS011;33408;52.062;11.722;2023-07-31T05:03:32;7.13;;;2.78;;
47669;SDS011;33408;52.062;11.722;2023-07-31T05:05:58;5.93;;;2.20;;
47669;SDS011;33408;52.062;11.722;2023-07-31T05:08:25;6.60;;;2.60;;
47669;SDS011;33408;52.062;11.722;2023-07-31T05:10:53;8.50;;;2.38;;
47669;SDS011;33408;52.062;11.722;2023-07-31T05:13:20;8.38;;;2.65;;
47669;SDS011;33408;52.062;11.722;2023-07-31T05:15:46;7.90;;;2.45;;
47669;SDS011;33408;52.062;11.722;2023-07-31T05:18:14;6.63;;;2.33;;
47669;SDS011;33408;52.062;11.722;2023-07-31T05:20:41;8.18;;;3.08;;
47669;SDS011;33408;52.062;11.722;2023-07-31T05:23:07;6.88;;;2.25;;
47669;SDS011;33408;52.062;11.722;2023-07-31T05:25:34;5.90;;;2.50;;
47669;SDS011;33408;52.062;11.722;2023-07-31T05:28:02;6.60;;;2.60;;
47669;SDS011;33408;52.062;11.722;2023-07-31T05:30:29;6.55;;;2.60;;
47669;SDS011;33408;52.062;11.722;2023-07-31T05:32:56;8.55;;;2.75;;
47669;SDS011;33408;52.062;11.722;2023-07-31T05:35:22;6.40;;;3.40;;
47669;SDS011;33408;52.062;11.722;2023-07-31T05:37:49;10.43;;;2.47;;
47669;SDS011;33408;52.062;11.722;2023-07-31T05:40:15;7.72;;;2.83;;
47669;SDS011;33408;52.062;11.722;2023-07-31T05:42:42;8.40;;;3.15;;
47669;SDS011;33408;52.062;11.722;2023-07-31T05:45:10;5.93;;;2.53;;
47669;SDS011;33408;52.062;11.722;2023-07-31T05:47:38;5.82;;;2.50;;
47669;SDS011;33408;52.062;11.722;2023-07-31T05:50:05;6.90;;;2.63;;
47669;SDS011;33408;52.062;11.722;2023-07-31T05:52:32;6.25;;;2.28;;
47669;SDS011;33408;52.062;11.722;2023-07-31T05:54:58;5.65;;;2.25;;
47669;SDS011;33408;52.062;11.722;2023-07-31T05:57:25;6.75;;;2.08;;
47669;SDS011;33408;52.062;11.722;2023-07-31T05:59:51;7.72;;;2.55;;
47669;SDS011;33408;52.062;11.722;2023-07-31T06:02:20;5.80;;;2.03;;
47669;SDS011;33408;52.062;11.722;2023-07-31T06:04:47;6.95;;;2.53;;
47669;SDS011;33408;52.062;11.722;2023-07-31T06:07:14;4.43;;;1.95;;
47669;SDS011;33408;52.062;11.722;2023-07-31T06:09:40;5.18;;;2.30;;
47669;SDS011;33408;52.062;11.722;2023-07-31T06:12:07;4.85;;;2.25;;
47669;SDS011;33408;52.062;11.722;2023-07-31T06:14:34;9.10;;;2.08;;
47669;SDS011;33408;52.062;11.722;2023-07-31T06:17:01;4.72;;;2.13;;
47669;SDS011;33408;52.062;11.722;2023-07-31T06:19:29;5.25;;;1.90;;
47669;SDS011;33408;52.062;11.722;2023-07-31T06:21:55;4.82;;;2.03;;
47669;SDS011;33408;52.062;11.722;2023-07-31T06:24:22;6.22;;;2.00;;
47669;SDS011;33408;52.062;11.722;2023-07-31T06:26:48;5.38;;;2.08;;
47669;SDS011;33408;52.062;11.722;2023-07-31T06:29:15;3.70;;;1.65;;
47669;SDS011;33408;52.062;11.722;2023-07-31T06:31:42;5.97;;;2.03;;
47669;SDS011;33408;52.062;11.722;2023-07-31T06:34:09;4.28;;;1.90;;
47669;SDS011;33408;52.062;11.722;2023-07-31T06:36:36;7.28;;;1.90;;
47669;SDS011;33408;52.062;11.722;2023-07-31T06:39:03;6.47;;;1.63;;
47669;SDS011;33408;52.062;11.722;2023-07-31T06:41:30;3.25;;;1.40;;
47669;SDS011;33408;52.062;11.722;2023-07-31T06:43:56;4.40;;;1.70;;
47669;SDS011;33408;52.062;11.722;2023-07-31T06:46:23;4.93;;;2.13;;
47669;SDS011;33408;52.062;11.722;2023-07-31T06:48:49;3.63;;;1.58;;
47669;SDS011;33408;52.062;11.722;2023-07-31T06:51:16;4.18;;;1.75;;
47669;SDS011;33408;52.062;11.722;2023-07-31T06:53:44;3.00;;;1.35;;
47669;SDS011;33408;52.062;11.722;2023-07-31T06:56:11;3.72;;;1.70;;
47669;SDS011;33408;52.062;11.722;2023-07-31T06:58:38;2.10;;;1.20;;
47669;SDS011;33408;52.062;11.722;2023-07-31T07:01:04;2.90;;;1.20;;
47669;SDS011;33408;52.062;11.722;2023-07-31T07:03:31;2.90;;;1.27;;
47669;SDS011;33408;52.062;11.722;2023-07-31T07:05:58;2.47;;;1.30;;
47669;SDS011;33408;52.062;11.722;2023-07-31T07:08:25;1.55;;;0.93;;
47669;SDS011;33408;52.062;11.722;2023-07-31T07:10:53;3.42;;;1.35;;
47669;SDS011;33408;52.062;11.722;2023-07-31T07:13:21;3.38;;;1.10;;
47669;SDS011;33408;52.062;11.722;2023-07-31T07:15:48;4.55;;;1.30;;
47669;SDS011;33408;52.062;11.722;2023-07-31T07:18:14;1.13;;;0.90;;
47669;SDS011;33408;52.062;11.722;2023-07-31T07:20:45;4.43;;;1.55;;
47669;SDS011;33408;52.062;11.722;2023-07-31T07:23:12;3.15;;;1.05;;
47669;SDS011;33408;52.062;11.722;2023-07-31T07:25:39;2.58;;;1.27;;
47669;SDS011;33408;52.062;11.722;2023-07-31T07:28:07;2.63;;;1.17;;
47669;SDS011;33408;52.062;11.722;2023-07-31T07:30:33;2.03;;;1.13;;
47669;SDS011;33408;52.062;11.722;2023-07-31T07:33:00;4.80;;;1.60;;
47669;SDS011;33408;52.062;11.722;2023-07-31T07:35:26;4.20;;;1.42;;
47669;SDS011;33408;52.062;11.722;2023-07-31T07:37:53;2.53;;;1.15;;
47669;SDS011;33408;52.062;11.722;2023-07-31T07:40:20;3.03;;;1.25;;
47669;SDS011;33408;52.062;11.722;2023-07-31T07:42:47;4.53;;;1.90;;
47669;SDS011;33408;52.062;11.722;2023-07-31T07:45:15;4.45;;;1.42;;
47669;SDS011;33408;52.062;11.722;2023-07-31T07:47:41;4.25;;;1.10;;
47669;SDS011;33408;52.062;11.722;2023-07-31T07:50:08;2.63;;;1.38;;
47669;SDS011;33408;52.062;11.722;2023-07-31T07:52:35;3.85;;;1.40;;
47669;SDS011;33408;52.062;11.722;2023-07-31T07:55:02;3.80;;;1.45;;
47669;SDS011;33408;52.062;11.722;2023-07-31T07:57:29;2.10;;;1.13;;
47669;SDS011;33408;52.062;11.722;2023-07-31T07:59:56;4.35;;;1.50;;
47669;SDS011;33408;52.062;11.722;2023-07-31T08:02:24;1.95;;;1.13;;
47669;SDS011;33408;52.062;11.722;2023-07-31T08:04:51;3.47;;;1.40;;
47669;SDS011;33408;52.062;11.722;2023-07-31T08:07:17;5.40;;;1.80;;
47669;SDS011;33408;52.062;11.722;2023-07-31T08:09:44;3.35;;;1.70;;
47669;SDS011;33408;52.062;11.722;2023-07-31T08:12:10;4.78;;;1.70;;
47669;SDS011;33408;52.062;11.722;2023-07-31T08:14:37;8.27;;;3.08;;
47669;SDS011;33408;52.062;11.722;2023-07-31T08:17:03;7.03;;;3.08;;
47669;SDS011;33408;52.062;11.722;2023-07-31T08:19:31;7.45;;;3.50;;
47669;SDS011;33408;52.062;11.722;2023-07-31T08:21:58;5.57;;;2.70;;
47669;SDS011;33408;52.062;11.722;2023-07-31T08:24:25;9.02;;;3.10;;
47669;SDS011;33408;52.062;11.722;2023-07-31T08:26:51;6.68;;;3.00;;
47669;SDS011;33408;52.062;11.722;2023-07-31T08:29:18;7.60;;;3.00;;
47669;SDS011;33408;52.062;11.722;2023-07-31T08:31:44;8.43;;;2.45;;
47669;SDS011;33408;52.062;11.722;2023-07-31T08:34:11;6.57;;;2.60;;
47669;SDS011;33408;52.062;11.722;2023-07-31T08:36:39;7.95;;;2.85;;
47669;SDS011;33408;52.062;11.722;2023-07-31T08:39:05;6.82;;;2.90;;
47669;SDS011;33408;52.062;11.722;2023-07-31T08:41:36;7.57;;;2.95;;
47669;SDS011;33408;52.062;11.722;2023-07-31T08:44:03;7.20;;;2.97;;
47669;SDS011;33408;52.062;11.722;2023-07-31T08:46:30;8.57;;;3.30;;
47669;SDS011;33408;52.062;11.722;2023-07-31T08:48:59;7.13;;;3.25;;
47669;SDS011;33408;52.062;11.722;2023-07-31T08:51:29;7.07;;;3.20;;
47669;SDS011;33408;52.062;11.722;2023-07-31T08:53:57;7.38;;;3.17;;
47669;SDS011;33408;52.062;11.722;2023-07-31T08:56:24;7.22;;;2.78;;
47669;SDS011;33408;52.062;11.722;2023-07-31T08:58:52;7.22;;;3.38;;
47669;SDS011;33408;52.062;11.722;2023-07-31T09:01:20;6.32;;;3.13;;
47669;SDS011;33408;52.062;11.722;2023-07-31T09:03:47;5.75;;;2.78;;
47669;SDS011;33408;52.062;11.722;2023-07-31T09:06:17;7.28;;;3.10;;
47669;SDS011;33408;52.062;11.722;2023-07-31T09:08:47;7.10;;;3.05;;
47669;SDS011;33408;52.062;11.722;2023-07-31T09:11:17;8.27;;;3.53;;
47669;SDS011;33408;52.062;11.722;2023-07-31T09:13:43;5.82;;;2.75;;
47669;SDS011;33408;52.062;11.722;2023-07-31T09:16:11;6.40;;;2.83;;
47669;SDS011;33408;52.062;11.722;2023-07-31T09:18:52;6.18;;;2.53;;
47669;SDS011;33408;52.062;11.722;2023-07-31T09:21:19;6.18;;;3.05;;
47669;SDS011;33408;52.062;11.722;2023-07-31T09:23:46;5.50;;;2.58;;
47669;SDS011;33408;52.062;11.722;2023-07-31T09:26:28;7.00;;;2.90;;
47669;SDS011;33408;52.062;11.722;2023-07-31T09:28:55;6.83;;;3.10;;
47669;SDS011;33408;52.062;11.722;2023-07-31T09:31:31;6.20;;;2.58;;
47669;SDS011;33408;52.062;11.722;2023-07-31T09:33:58;7.43;;;3.22;;
47669;SDS011;33408;52.062;11.722;2023-07-31T09:36:25;6.80;;;2.80;;
47669;SDS011;33408;52.062;11.722;2023-07-31T09:38:55;5.15;;;2.63;;
47669;SDS011;33408;52.062;11.722;2023-07-31T09:41:25;6.38;;;2.97;;
47669;SDS011;33408;52.062;11.722;2023-07-31T09:43:55;7.97;;;3.22;;
47669;SDS011;33408;52.062;11.722;2023-07-31T09:46:21;7.30;;;2.85;;
47669;SDS011;33408;52.062;11.722;2023-07-31T09:48:48;6.60;;;3.25;;
47669;SDS011;33408;52.062;11.722;2023-07-31T09:51:14;5.30;;;2.92;;
47669;SDS011;33408;52.062;11.722;2023-07-31T09:53:41;6.82;;;2.97;;
47669;SDS011;33408;52.062;11.722;2023-07-31T09:56:15;6.35;;;3.10;;
47669;SDS011;33408;52.062;11.722;2023-07-31T09:58:48;6.65;;;3.17;;
47669;SDS011;33408;52.062;11.722;2023-07-31T10:01:15;5.57;;;3.20;;
47669;SDS011;33408;52.062;11.722;2023-07-31T10:03:42;7.88;;;2.95;;
47669;SDS011;33408;52.062;11.722;2023-07-31T10:06:11;8.60;;;3.60;;
47669;SDS011;33408;52.062;11.722;2023-07-31T10:08:44;7.68;;;3.10;;
47669;SDS011;33408;52.062;11.722;2023-07-31T10:11:14;6.10;;;2.83;;
47669;SDS011;33408;52.062;11.722;2023-07-31T10:13:42;7.53;;;3.63;;
47669;SDS011;33408;52.062;11.722;2023-07-31T10:16:10;7.50;;;3.53;;
47669;SDS011;33408;52.062;11.722;2023-07-31T10:18:38;5.32;;;2.70;;
47669;SDS011;33408;52.062;11.722;2023-07-31T10:21:06;7.20;;;2.80;;
47669;SDS011;33408;52.062;11.722;2023-07-31T10:23:33;7.13;;;3.08;;
47669;SDS011;33408;52.062;11.722;2023-07-31T10:26:00;6.13;;;2.92;;
47669;SDS011;33408;52.062;11.722;2023-07-31T10:28:28;6.93;;;2.97;;
47669;SDS011;33408;52.062;11.722;2023-07-31T10:30:55;6.85;;;2.63;;
47669;SDS011;33408;52.062;11.722;2023-07-31T10:33:24;6.35;;;2.75;;
47669;SDS011;33408;52.062;11.722;2023-07-31T10:35:55;12.77;;;3.13;;
47669;SDS011;33408;52.062;11.722;2023-07-31T10:38:38;8.57;;;3.08;;
47669;SDS011;33408;52.062;11.722;2023-07-31T10:41:07;5.22;;;2.10;;
47669;SDS011;33408;52.062;11.722;2023-07-31T10:43:35;6.05;;;2.20;;
47669;SDS011;33408;52.062;11.722;2023-07-31T10:46:06;3.60;;;1.60;;
47669;SDS011;33408;52.062;11.722;2023-07-31T10:48:35;5.00;;;1.70;;
47669;SDS011;33408;52.062;11.722;2023-07-31T10:51:06;4.53;;;1.35;;
47669;SDS011;33408;52.062;11.722;2023-07-31T10:53:34;2.60;;;1.40;;
47669;SDS011;33408;52.062;11.722;2023-07-31T10:56:01;4.03;;;1.52;;
47669;SDS011;33408;52.062;11.722;2023-07-31T10:58:29;3.85;;;1.58;;
47669;SDS011;33408;52.062;11.722;2023-07-31T11:00:58;3.20;;;1.60;;
47669;SDS011;33408;52.062;11.722;2023-07-31T11:03:26;4.10;;;1.63;;
47669;SDS011;33408;52.062;11.722;2023-07-31T11:06:07;4.93;;;1.73;;
47669;SDS011;33408;52.062;11.722;2023-07-31T11:08:35;3.63;;;1.70;;
47669;SDS011;33408;52.062;11.722;2023-07-31T11:13:39;4.50;;;1.77;;
47669;SDS011;33408;52.062;11.722;2023-07-31T11:16:07;7.05;;;2.03;;
47669;SDS011;33408;52.062;11.722;2023-07-31T11:18:35;4.82;;;1.95;;
47669;SDS011;33408;52.062;11.722;2023-07-31T11:21:04;5.57;;;2.50;;
47669;SDS011;33408;52.062;11.722;2023-07-31T11:23:32;4.03;;;1.90;;
47669;SDS011;33408;52.062;11.722;2023-07-31T11:25:59;5.15;;;1.80;;
47669;SDS011;33408;52.062;11.722;2023-07-31T11:28:30;3.85;;;1.98;;
47669;SDS011;33408;52.062;11.722;2023-07-31T11:30:58;5.30;;;2.10;;
47669;SDS011;33408;52.062;11.722;2023-07-31T11:33:24;4.80;;;2.25;;
47669;SDS011;33408;52.062;11.722;2023-07-31T11:35:51;5.50;;;2.42;;
47669;SDS011;33408;52.062;11.722;2023-07-31T11:38:21;5.90;;;2.83;;
47669;SDS011;33408;52.062;11.722;2023-07-31T11:40:51;4.78;;;2.08;;
47669;SDS011;33408;52.062;11.722;2023-07-31T11:43:18;5.72;;;2.15;;
47669;SDS011;33408;52.062;11.722;2023-07-31T11:45:46;4.30;;;2.15;;
47669;SDS011;33408;52.062;11.722;2023-07-31T11:48:18;7.75;;;3.05;;
47669;SDS011;33408;52.062;11.722;2023-07-31T11:50:45;6.75;;;2.60;;
47669;SDS011;33408;52.062;11.722;2023-07-31T11:53:14;7.07;;;2.85;;
47669;SDS011;33408;52.062;11.722;2023-07-31T11:55:41;7.82;;;3.05;;
47669;SDS011;33408;52.062;11.722;2023-07-31T11:58:11;5.97;;;2.30;;
47669;SDS011;33408;52.062;11.722;2023-07-31T12:00:38;4.97;;;2.58;;
47669;SDS011;33408;52.062;11.722;2023-07-31T12:03:04;5.53;;;2.35;;
47669;SDS011;33408;52.062;11.722;2023-07-31T12:05:31;5.80;;;2.70;;
47669;SDS011;33408;52.062;11.722;2023-07-31T12:07:58;5.65;;;2.45;;
47669;SDS011;33408;52.062;11.722;2023-07-31T12:10:28;5.70;;;2.47;;
47669;SDS011;33408;52.062;11.722;2023-07-31T12:12:56;5.33;;;2.37;;
47669;SDS011;33408;52.062;11.722;2023-07-31T12:15:30;5.55;;;2.55;;
47669;SDS011;33408;52.062;11.722;2023-07-31T12:17:58;6.07;;;2.25;;
47669;SDS011;33408;52.062;11.722;2023-07-31T12:20:25;5.38;;;2.58;;
47669;SDS011;33408;52.062;11.722;2023-07-31T12:22:52;6.50;;;2.53;;
47669;SDS011;33408;52.062;11.722;2023-07-31T12:25:22;5.13;;;2.38;;
47669;SDS011;33408;52.062;11.722;2023-07-31T12:27:50;5.57;;;2.45;;
47669;SDS011;33408;52.062;11.722;2023-07-31T12:30:27;5.93;;;2.10;;
47669;SDS011;33408;52.062;11.722;2023-07-31T12:32:55;7.47;;;2.38;;
47669;SDS011;33408;52.062;11.722;2023-07-31T12:35:23;6.47;;;2.55;;
47669;SDS011;33408;52.062;11.722;2023-07-31T12:37:50;5.63;;;2.10;;
47669;SDS011;33408;52.062;11.722;2023-07-31T12:40:16;4.85;;;2.20;;
47669;SDS011;33408;52.062;11.722;2023-07-31T12:42:43;5.97;;;2.38;;
47669;SDS011;33408;52.062;11.722;2023-07-31T12:45:09;5.00;;;2.33;;
47669;SDS011;33408;52.062;11.722;2023-07-31T12:47:36;3.92;;;1.88;;
47669;SDS011;33408;52.062;11.722;2023-07-31T12:50:04;5.15;;;2.22;;
47669;SDS011;33408;52.062;11.722;2023-07-31T12:52:32;4.93;;;2.15;;
47669;SDS011;33408;52.062;11.722;2023-07-31T12:54:58;4.82;;;2.22;;
47669;SDS011;33408;52.062;11.722;2023-07-31T12:57:25;6.15;;;2.50;;
47669;SDS011;33408;52.062;11.722;2023-07-31T12:59:52;5.80;;;2.30;;
47669;SDS011;33408;52.062;11.722;2023-07-31T13:02:18;6.78;;;2.28;;
47669;SDS011;33408;52.062;11.722;2023-07-31T13:04:45;4.47;;;2.15;;
47669;SDS011;33408;52.062;11.722;2023-07-31T13:07:13;5.03;;;2.25;;
47669;SDS011;33408;52.062;11.722;2023-07-31T13:09:39;5.82;;;2.67;;
47669;SDS011;33408;52.062;11.722;2023-07-31T13:12:06;5.10;;;2.35;;
47669;SDS011;33408;52.062;11.722;2023-07-31T13:14:33;6.22;;;2.60;;
47669;SDS011;33408;52.062;11.722;2023-07-31T13:17:00;4.85;;;2.33;;
47669;SDS011;33408;52.062;11.722;2023-07-31T13:19:27;5.15;;;2.38;;
47669;SDS011;33408;52.062;11.722;2023-07-31T13:21:53;5.13;;;2.30;;
47669;SDS011;33408;52.062;11.722;2023-07-31T13:24:21;5.10;;;2.50;;
47669;SDS011;33408;52.062;11.722;2023-07-31T13:26:48;5.47;;;2.47;;
47669;SDS011;33408;52.062;11.722;2023-07-31T13:29:14;5.25;;;2.15;;
47669;SDS011;33408;52.062;11.722;2023-07-31T13:31:41;6.20;;;2.53;;
47669;SDS011;33408;52.062;11.722;2023-07-31T13:34:07;6.70;;;2.65;;
47669;SDS011;33408;52.062;11.722;2023-07-31T13:36:34;5.90;;;2.55;;
47669;SDS011;33408;52.062;11.722;2023-07-31T13:39:02;5.80;;;2.33;;
47669;SDS011;33408;52.062;11.722;2023-07-31T13:41:30;6.43;;;2.72;;
47669;SDS011;33408;52.062;11.722;2023-07-31T13:43:56;5.60;;;2.58;;
47669;SDS011;33408;52.062;11.722;2023-07-31T13:46:23;7.80;;;2.25;;
47669;SDS011;33408;52.062;11.722;2023-07-31T13:48:50;5.03;;;2.25;;
47669;SDS011;33408;52.062;11.722;2023-07-31T13:51:19;7.80;;;2.60;;
47669;SDS011;33408;52.062;11.722;2023-07-31T13:53:46;7.55;;;3.05;;
47669;SDS011;33408;52.062;11.722;2023-07-31T13:56:13;6.57;;;2.75;;
47669;SDS011;33408;52.062;11.722;2023-07-31T13:58:41;5.85;;;2.22;;
47669;SDS011;33408;52.062;11.722;2023-07-31T14:01:07;5.65;;;2.10;;
47669;SDS011;33408;52.062;11.722;2023-07-31T14:03:34;8.10;;;2.55;;
47669;SDS011;33408;52.062;11.722;2023-07-31T14:06:02;4.90;;;2.20;;
47669;SDS011;33408;52.062;11.722;2023-07-31T14:08:29;4.82;;;2.05;;
47669;SDS011;33408;52.062;11.722;2023-07-31T14:10:56;5.80;;;2.28;;
47669;SDS011;33408;52.062;11.722;2023-07-31T14:13:22;7.28;;;2.38;;
47669;SDS011;33408;52.062;11.722;2023-07-31T14:15:50;5.70;;;2.97;;
47669;SDS011;33408;52.062;11.722;2023-07-31T14:18:18;6.10;;;2.45;;
47669;SDS011;33408;52.062;11.722;2023-07-31T14:20:45;5.68;;;2.20;;
47669;SDS011;33408;52.062;11.722;2023-07-31T14:23:11;4.50;;;2.00;;
47669;SDS011;33408;52.062;11.722;2023-07-31T14:25:38;4.85;;;2.17;;
47669;SDS011;33408;52.062;11.722;2023-07-31T14:28:04;5.25;;;2.00;;
47669;SDS011;33408;52.062;11.722;2023-07-31T14:30:31;6.75;;;1.80;;
47669;SDS011;33408;52.062;11.722;2023-07-31T14:32:59;5.32;;;2.08;;
47669;SDS011;33408;52.062;11.722;2023-07-31T14:35:27;5.50;;;1.80;;
47669;SDS011;33408;52.062;11.722;2023-07-31T14:37:54;4.95;;;1.52;;